Air Resources Laboratory banner image
Air Resources Laboratory web site National Oceanic and Atmospheric Administration (NOAA)

ar metar


KARG 221056Z AUTO 34003KT 10SM 21/18 A2988 RMK AO2 SLP116 T02060183 $=
KASG 221048Z 00000KT 10SM SKC 20/19 A2998=
KBPK 221053Z AUTO 00000KT 10SM CLR 19/18 A2993 RMK AO2 SLP124 T01890183 $=
KCDH 221055Z AUTO 00000KT 9SM CLR 26/20 A2988 RMK AO2=
KDEQ 221053Z AUTO 00000KT 9SM CLR 24/23 A2990 RMK AO2 SLP118 T02390233 TSNO=
KELD 221053Z AUTO 06003KT 10SM CLR 27/23 A2990 RMK AO2 SLP119 T02670233=
KFLP 221056Z AUTO 00000KT 10SM CLR 18/17 A2994 RMK AO2 SLP131 T01830167=
KFSM 221053Z 00000KT 10SM CLR 23/19 A2993 RMK AO2 SLP128 T02280189=
KFYV 221053Z 00000KT 7SM CLR 17/17 A2998 RMK AO2 SLP135 T01720172=
KHKA 221053Z AUTO 00000KT 8SM CLR 20/18 A2986 RMK AO2 SLP108 T02000183 $=
KHOT 221053Z AUTO 00000KT 10SM CLR 23/18 A2992 RMK AO2 SLP124 T02280183=
KHRO 221053Z AUTO 27004KT 10SM CLR 20/17 A2997 RMK AO2 SLP130 T02000172 $=
KJBR 221053Z AUTO 00000KT 10SM CLR 22/20 A2987 RMK AO2 SLP111 T02220200=
KLIT 221053Z 25003KT 10SM FEW250 22/20 A2990 RMK AO2 SLP124 T02170200 $=
KLLQ 221053Z AUTO 02003KT 10SM CLR 25/21 A2988 RMK AO2 SLP115 T02500211=
KLRF 221056Z AUTO 00000KT 10SM CLR 21/19 A2990 RMK AO2 SLP124 T02050191=
KMWT 221053Z AUTO 00000KT 8SM CLR 21/21 A2992 RMK AO2 SLP116 T02060206=
KPBF 221053Z AUTO 33003KT 10SM CLR 23/19 A2989 RMK AO2 SLP120 T02280194 $=
KRUE 221053Z AUTO 00000KT 9SM CLR 19/19 A2992 RMK AO2 SLP123 T01940194 $=
KSGT 221056Z AUTO 32006KT 10SM CLR 22/20 A2989 RMK AO2 SLP118 T02170200=
KSLG 221056Z AUTO 00000KT 10SM CLR 19/17 A2998 RMK AO2 SLP140 T01890172=
KSRC 221056Z AUTO 00000KT 10SM CLR 19/19 A2990 RMK AO2 SLP128 T01940194=
KTXK 221053Z 02003KT 10SM CLR 27/21 A2991 RMK AO2 SLP123 T02670206=
KVBT 221056Z AUTO 00000KT 10SM CLR 20/18 A3000 RMK AO2 SLP148 T02000183=
KXNA 221053Z 35003KT 10SM CLR 19/17 A2998=